createdAt,value
2023-01-19T00:00:56.505Z,-1.54
2023-01-19T00:03:23.421Z,-1.55
2023-01-19T00:05:50.735Z,-1.56
2023-01-19T00:08:17.878Z,-1.59
2023-01-19T00:10:48.927Z,-1.61
2023-01-19T00:13:16.092Z,-1.65
2023-01-19T00:15:43.592Z,-1.68
2023-01-19T00:18:11.244Z,-1.72
2023-01-19T00:20:40.270Z,-1.73
2023-01-19T00:23:08.228Z,-1.74
2023-01-19T00:25:42.353Z,-1.74
2023-01-19T00:28:14.784Z,-1.77
2023-01-19T00:30:42.409Z,-1.79
2023-01-19T00:33:11.099Z,-1.81
2023-01-19T00:35:38.110Z,-1.82
2023-01-19T00:38:05.173Z,-1.85
2023-01-19T00:40:32.120Z,-1.86
2023-01-19T00:43:00.248Z,-1.88
2023-01-19T00:45:27.975Z,-1.88
2023-01-19T00:47:57.280Z,-1.89
2023-01-19T00:50:26.330Z,-1.92
2023-01-19T00:52:55.290Z,-1.93
2023-01-19T00:55:23.532Z,-1.95
2023-01-19T00:57:50.568Z,-1.97
2023-01-19T01:00:19.915Z,-2.04
2023-01-19T01:02:49.168Z,-1.98
2023-01-19T01:05:16.567Z,-2.02
2023-01-19T01:07:47.046Z,-2.01
2023-01-19T01:10:23.932Z,-2.00
2023-01-19T01:12:53.632Z,-1.98
2023-01-19T01:15:24.811Z,-1.99
2023-01-19T01:17:53.217Z,-1.97
2023-01-19T01:20:28.039Z,-1.97
2023-01-19T01:22:56.778Z,-2.01
2023-01-19T01:25:27.412Z,-2.04
2023-01-19T01:27:55.493Z,-2.03
2023-01-19T01:30:23.434Z,-2.05
2023-01-19T01:32:50.478Z,-2.05
2023-01-19T01:35:17.952Z,-2.07
2023-01-19T01:37:45.011Z,-2.09
2023-01-19T01:40:17.759Z,-2.11
2023-01-19T01:42:45.748Z,-2.13
2023-01-19T01:45:40.326Z,-2.18
2023-01-19T01:48:18.016Z,-2.21
2023-01-19T01:51:10.144Z,-2.23
2023-01-19T01:53:38.618Z,-2.24
2023-01-19T01:56:14.303Z,-2.30
2023-01-19T01:58:41.756Z,-2.31
2023-01-19T02:01:29.341Z,-2.32
2023-01-19T02:03:57.902Z,-2.36
2023-01-19T02:06:25.934Z,-2.36
2023-01-19T02:09:27.458Z,-2.37
2023-01-19T02:12:13.919Z,-2.37
2023-01-19T02:14:40.948Z,-2.39
2023-01-19T02:17:08.159Z,-2.41
2023-01-19T02:19:42.930Z,-2.41
2023-01-19T02:22:38.558Z,-2.42
2023-01-19T02:25:06.687Z,-2.45
2023-01-19T02:27:34.129Z,-2.47
2023-01-19T02:30:03.777Z,-2.52
2023-01-19T02:32:30.921Z,-2.50
2023-01-19T02:34:58.289Z,-2.46
2023-01-19T02:37:26.796Z,-2.47
2023-01-19T02:39:57.962Z,-2.45
2023-01-19T02:42:30.018Z,-2.44
2023-01-19T02:44:58.025Z,-2.43
2023-01-19T02:47:25.155Z,-2.43
2023-01-19T02:50:00.093Z,-2.45
2023-01-19T02:52:28.438Z,-2.47
2023-01-19T02:55:18.332Z,-2.47
2023-01-19T02:58:09.932Z,-2.50
2023-01-19T03:00:48.858Z,-2.54
2023-01-19T03:03:32.014Z,-2.56
2023-01-19T03:06:15.094Z,-2.58
2023-01-19T03:08:48.324Z,-2.61
2023-01-19T03:11:15.825Z,-2.64
2023-01-19T03:13:58.719Z,-2.64
2023-01-19T03:16:50.264Z,-2.66
2023-01-19T03:19:46.549Z,-2.68
2023-01-19T03:22:24.531Z,-2.69
2023-01-19T03:24:55.705Z,-2.70
2023-01-19T03:27:41.234Z,-2.69
2023-01-19T03:30:11.682Z,-2.70
2023-01-19T03:32:47.583Z,-2.73
2023-01-19T03:35:16.670Z,-2.75
2023-01-19T03:37:48.238Z,-2.77
2023-01-19T03:40:15.621Z,-2.78
2023-01-19T03:42:43.889Z,-2.81
2023-01-19T03:45:13.479Z,-2.82
2023-01-19T03:47:41.340Z,-2.84
2023-01-19T03:50:18.904Z,-2.87
2023-01-19T03:52:45.924Z,-2.89
2023-01-19T03:55:13.719Z,-2.92
2023-01-19T03:57:40.637Z,-2.94
2023-01-19T04:00:08.755Z,-2.95
2023-01-19T04:02:35.772Z,-2.99
2023-01-19T04:05:02.808Z,-3.02
2023-01-19T04:07:29.741Z,-3.04
2023-01-19T04:09:56.721Z,-3.05
2023-01-19T04:12:23.770Z,-3.07
2023-01-19T04:14:50.760Z,-3.11
2023-01-19T04:17:17.663Z,-3.12
2023-01-19T04:19:45.239Z,-3.12
2023-01-19T04:22:12.199Z,-3.14
2023-01-19T04:24:39.097Z,-3.15
2023-01-19T04:27:06.053Z,-3.16
2023-01-19T04:29:33.208Z,-3.17
2023-01-19T04:32:00.112Z,-3.19
2023-01-19T04:34:27.078Z,-3.21
2023-01-19T04:36:56.000Z,-3.23
2023-01-19T04:39:23.202Z,-3.24
2023-01-19T04:41:51.700Z,-3.23
2023-01-19T04:44:18.694Z,-3.24
2023-01-19T04:46:45.748Z,-3.23
2023-01-19T04:49:12.719Z,-3.24
2023-01-19T04:51:39.652Z,-3.25
2023-01-19T04:54:09.074Z,-3.25
2023-01-19T04:56:36.299Z,-3.26
2023-01-19T04:59:03.306Z,-3.26
2023-01-19T05:01:30.357Z,-3.25
2023-01-19T05:04:00.086Z,-3.25
2023-01-19T05:06:27.100Z,-3.23
2023-01-19T05:08:54.476Z,-3.22
2023-01-19T05:11:21.668Z,-3.20
2023-01-19T05:13:50.891Z,-3.21
2023-01-19T05:16:18.064Z,-3.21
2023-01-19T05:18:45.133Z,-3.24
2023-01-19T05:21:12.060Z,-3.24
2023-01-19T05:23:39.031Z,-3.25
2023-01-19T05:26:06.130Z,-3.25
2023-01-19T05:28:33.988Z,-3.24
2023-01-19T05:31:01.057Z,-3.28
2023-01-19T05:33:28.206Z,-3.29
2023-01-19T05:35:55.554Z,-3.29
2023-01-19T05:38:34.218Z,-3.30
2023-01-19T05:41:02.498Z,-3.29
2023-01-19T05:43:29.482Z,-3.30
2023-01-19T05:45:56.513Z,-3.31
2023-01-19T05:48:23.503Z,-3.28
2023-01-19T05:50:51.503Z,-3.26
2023-01-19T05:53:18.476Z,-3.25
2023-01-19T05:55:45.470Z,-3.28
2023-01-19T05:58:12.393Z,-3.29
2023-01-19T06:00:39.330Z,-3.28
2023-01-19T06:03:06.645Z,-3.30
2023-01-19T06:05:34.065Z,-3.30
2023-01-19T06:08:01.796Z,-3.33
2023-01-19T06:10:28.756Z,-3.33
2023-01-19T06:12:55.830Z,-3.35
2023-01-19T06:15:22.982Z,-3.39
2023-01-19T06:17:49.923Z,-3.43
2023-01-19T06:20:17.196Z,-3.45
2023-01-19T06:22:44.373Z,-3.48
2023-01-19T06:25:11.914Z,-3.50
2023-01-19T06:27:39.951Z,-3.52
2023-01-19T06:30:07.866Z,-3.52
2023-01-19T06:32:34.893Z,-3.53
2023-01-19T06:35:01.886Z,-3.55
2023-01-19T06:37:30.528Z,-3.59
2023-01-19T06:39:57.553Z,-3.61
2023-01-19T06:42:24.504Z,-3.60
2023-01-19T06:44:51.460Z,-3.61
2023-01-19T06:47:18.527Z,-3.62
2023-01-19T06:49:45.774Z,-3.64
2023-01-19T06:52:17.551Z,-3.63
2023-01-19T06:54:46.167Z,-3.62
2023-01-19T06:57:14.457Z,-3.63
2023-01-19T06:59:41.789Z,-3.61
2023-01-19T07:02:27.785Z,-3.58
2023-01-19T07:04:56.587Z,-3.57
2023-01-19T07:07:23.578Z,-3.55
2023-01-19T07:09:53.848Z,-3.55
2023-01-19T07:12:22.342Z,-3.50
2023-01-19T07:14:49.718Z,-3.51
2023-01-19T07:17:16.770Z,-3.49
2023-01-19T07:19:43.774Z,-3.45
2023-01-19T07:22:10.779Z,-3.42
2023-01-19T07:24:38.170Z,-3.39
2023-01-19T07:27:05.521Z,-3.35
2023-01-19T07:29:32.579Z,-3.31
2023-01-19T07:31:59.742Z,-3.24
2023-01-19T07:34:26.695Z,-3.20
2023-01-19T07:36:53.707Z,-3.16
2023-01-19T07:39:20.743Z,-3.12
2023-01-19T07:41:50.582Z,-3.09
2023-01-19T07:44:17.662Z,-3.05
2023-01-19T07:46:44.810Z,-2.88
2023-01-19T07:49:12.706Z,-2.39
2023-01-19T07:51:39.691Z,-1.72
2023-01-19T07:54:08.485Z,-1.05
2023-01-19T07:56:35.456Z,-0.44
2023-01-19T07:59:02.513Z,0.14
2023-01-19T08:01:29.921Z,0.62
2023-01-19T08:03:57.279Z,1.11
2023-01-19T08:06:35.428Z,1.65
2023-01-19T08:09:05.555Z,2.19
2023-01-19T08:11:33.443Z,2.68
2023-01-19T08:14:00.914Z,3.16
2023-01-19T08:16:28.134Z,3.59
2023-01-19T08:18:55.362Z,3.94
2023-01-19T08:21:22.296Z,4.30
2023-01-19T08:23:57.151Z,4.55
2023-01-19T08:26:29.301Z,4.77
2023-01-19T08:28:59.223Z,4.90
2023-01-19T08:31:26.884Z,5.00
2023-01-19T08:33:54.205Z,5.12
2023-01-19T08:36:22.649Z,5.25
2023-01-19T08:38:49.923Z,5.40
2023-01-19T08:41:17.025Z,5.58
2023-01-19T08:43:45.511Z,5.71
2023-01-19T08:46:12.783Z,5.80
2023-01-19T08:48:40.110Z,5.83
2023-01-19T08:51:07.256Z,5.96
2023-01-19T08:53:34.702Z,6.15
2023-01-19T08:56:02.318Z,6.26
2023-01-19T08:58:29.536Z,6.34
2023-01-19T09:00:56.678Z,6.34
2023-01-19T09:03:24.064Z,6.46
2023-01-19T09:05:51.330Z,6.55
2023-01-19T09:08:18.404Z,6.61
2023-01-19T09:10:50.584Z,6.76
2023-01-19T09:13:19.391Z,6.95
2023-01-19T09:15:47.091Z,7.20
2023-01-19T09:18:18.059Z,7.34
2023-01-19T09:20:48.574Z,7.27
2023-01-19T09:23:20.116Z,7.24
2023-01-19T09:25:48.106Z,7.23
2023-01-19T09:28:17.666Z,7.36
2023-01-19T09:30:45.240Z,7.48
2023-01-19T09:33:17.489Z,7.57
2023-01-19T09:35:47.119Z,7.80
2023-01-19T09:38:16.403Z,8.03
2023-01-19T09:41:04.356Z,8.21
2023-01-19T09:43:45.452Z,8.38
2023-01-19T09:46:41.488Z,8.39
2023-01-19T09:49:36.794Z,8.35
2023-01-19T09:52:04.373Z,8.56
2023-01-19T09:54:54.643Z,8.59
2023-01-19T09:57:27.211Z,8.70
2023-01-19T09:59:59.725Z,8.64
2023-01-19T10:02:47.907Z,8.45
2023-01-19T10:05:45.128Z,8.25
2023-01-19T10:08:30.543Z,8.14
2023-01-19T10:10:58.660Z,7.97
2023-01-19T10:13:44.354Z,7.96
2023-01-19T10:16:14.471Z,7.79
2023-01-19T10:18:51.955Z,7.67
2023-01-19T10:21:34.768Z,7.31
2023-01-19T10:24:11.718Z,7.19
2023-01-19T10:26:56.699Z,7.03
2023-01-19T10:29:36.387Z,6.93
2023-01-19T10:32:35.967Z,6.56
2023-01-19T10:35:21.925Z,6.17
2023-01-19T10:37:49.766Z,5.94
2023-01-19T10:40:36.658Z,5.73
2023-01-19T10:43:38.055Z,5.62
2023-01-19T10:46:50.371Z,5.57
2023-01-19T10:49:39.245Z,5.49
2023-01-19T10:52:39.807Z,5.34
2023-01-19T10:55:24.915Z,5.11
2023-01-19T10:57:53.624Z,4.96
2023-01-19T11:00:41.265Z,4.83
2023-01-19T11:03:32.286Z,4.70
2023-01-19T11:06:27.985Z,4.50
2023-01-19T11:09:19.691Z,4.31
2023-01-19T11:11:50.632Z,4.23
2023-01-19T11:14:24.675Z,4.13
2023-01-19T11:16:58.917Z,4.22
2023-01-19T11:19:30.795Z,4.36
2023-01-19T11:22:24.759Z,4.35
2023-01-19T11:24:52.215Z,4.18
2023-01-19T11:27:21.301Z,4.02
2023-01-19T11:30:12.321Z,3.72
2023-01-19T11:32:39.353Z,3.47
2023-01-19T11:35:33.474Z,3.28
2023-01-19T11:38:23.471Z,3.13
2023-01-19T11:40:59.118Z,3.01
2023-01-19T11:43:39.781Z,2.93
2023-01-19T11:46:15.426Z,2.84
2023-01-19T11:49:05.482Z,2.78
2023-01-19T11:52:04.761Z,2.75
2023-01-19T11:54:56.268Z,2.73
2023-01-19T11:57:23.427Z,2.67
2023-01-19T11:59:53.329Z,2.65
2023-01-19T12:02:43.004Z,2.61
2023-01-19T12:05:16.466Z,2.62
2023-01-19T12:07:45.635Z,2.59
2023-01-19T12:10:28.969Z,2.55
2023-01-19T12:12:57.459Z,2.52
2023-01-19T12:15:29.859Z,2.52
2023-01-19T12:18:02.575Z,2.52
2023-01-19T12:20:39.355Z,2.51
2023-01-19T12:23:57.539Z,2.53
2023-01-19T12:26:49.310Z,2.54
2023-01-19T12:29:22.023Z,2.56
2023-01-19T12:32:14.815Z,2.58
2023-01-19T12:34:49.306Z,2.62
2023-01-19T12:37:30.691Z,2.66
2023-01-19T12:40:00.940Z,2.70
2023-01-19T12:42:28.658Z,2.71
2023-01-19T12:45:14.205Z,2.71
2023-01-19T12:47:54.690Z,2.72
2023-01-19T12:50:25.763Z,2.75
2023-01-19T12:53:04.178Z,2.78
2023-01-19T12:55:39.116Z,2.81
2023-01-19T12:58:18.838Z,2.84
2023-01-19T13:00:49.691Z,2.84
2023-01-19T13:03:16.550Z,2.83
2023-01-19T13:05:43.449Z,2.78
2023-01-19T13:08:10.393Z,2.73
2023-01-19T13:11:09.664Z,2.68
2023-01-19T13:13:46.300Z,2.68
2023-01-19T13:16:19.652Z,2.64
2023-01-19T13:19:08.579Z,2.61
2023-01-19T13:21:44.831Z,2.61
2023-01-19T13:24:19.573Z,2.61
2023-01-19T13:26:49.484Z,2.60
2023-01-19T13:29:37.964Z,2.61
2023-01-19T13:32:15.955Z,2.57
2023-01-19T13:35:01.765Z,2.54
2023-01-19T13:37:39.891Z,2.47
2023-01-19T13:40:08.492Z,2.43
2023-01-19T13:42:41.950Z,2.39
2023-01-19T13:45:37.897Z,2.35
2023-01-19T13:48:16.239Z,2.30
2023-01-19T13:50:45.404Z,2.23
2023-01-19T13:53:20.664Z,2.17
2023-01-19T13:55:50.307Z,2.08
2023-01-19T13:58:22.629Z,2.00
2023-01-19T14:00:50.129Z,1.94
2023-01-19T14:03:23.690Z,1.88
2023-01-19T14:05:53.441Z,1.85
2023-01-19T14:08:21.992Z,1.78
2023-01-19T14:10:56.297Z,1.73
2023-01-19T14:13:31.710Z,1.71
2023-01-19T14:16:20.801Z,1.65
2023-01-19T14:19:04.196Z,1.60
2023-01-19T14:21:40.063Z,1.54
2023-01-19T14:24:20.346Z,1.50
2023-01-19T14:27:17.108Z,1.44
2023-01-19T14:29:45.918Z,1.37
2023-01-19T14:32:20.520Z,1.33
2023-01-19T14:35:04.329Z,1.30
2023-01-19T14:37:47.230Z,1.26
2023-01-19T14:40:19.240Z,1.21
2023-01-19T14:42:52.971Z,1.16
2023-01-19T14:45:30.929Z,1.12
2023-01-19T14:48:02.919Z,1.06
2023-01-19T14:50:51.041Z,1.02
2023-01-19T14:53:29.870Z,0.98
2023-01-19T14:56:02.763Z,0.96
2023-01-19T14:58:33.154Z,0.93
2023-01-19T15:01:00.973Z,0.88
2023-01-19T15:03:43.640Z,0.86
2023-01-19T15:06:19.606Z,0.83
2023-01-19T15:08:50.069Z,0.83
2023-01-19T15:11:35.495Z,0.83
2023-01-19T15:14:03.090Z,0.83
2023-01-19T15:16:33.332Z,0.85
2023-01-19T15:19:00.670Z,0.87
2023-01-19T15:21:27.913Z,0.90
2023-01-19T15:23:55.842Z,0.95
2023-01-19T15:26:25.934Z,1.02
2023-01-19T15:28:53.159Z,1.10
2023-01-19T15:31:23.331Z,1.17
2023-01-19T15:33:50.690Z,1.23
2023-01-19T15:36:20.396Z,1.28
2023-01-19T15:38:50.241Z,1.31
2023-01-19T15:41:26.393Z,1.36
2023-01-19T15:43:53.898Z,1.43
2023-01-19T15:46:22.062Z,1.51
2023-01-19T15:48:50.530Z,1.55
2023-01-19T15:51:21.079Z,1.58
2023-01-19T15:53:50.094Z,1.60
2023-01-19T15:56:23.339Z,1.63
2023-01-19T15:58:51.442Z,1.65
2023-01-19T16:01:22.410Z,1.66
2023-01-19T16:03:50.494Z,1.68
2023-01-19T16:06:18.293Z,1.69
2023-01-19T16:08:45.617Z,1.71
2023-01-19T16:11:15.265Z,1.71
2023-01-19T16:13:46.254Z,1.71
2023-01-19T16:16:18.338Z,1.69
2023-01-19T16:18:45.803Z,1.63
2023-01-19T16:21:12.846Z,1.55
2023-01-19T16:23:39.992Z,1.45
2023-01-19T16:26:23.617Z,1.32
2023-01-19T16:28:50.552Z,1.28
2023-01-19T16:31:17.623Z,1.21
2023-01-19T16:33:47.328Z,1.15
2023-01-19T16:36:29.134Z,1.11
2023-01-19T16:39:01.168Z,1.09
2023-01-19T16:41:28.759Z,1.10
2023-01-19T16:43:57.627Z,1.12
2023-01-19T16:46:30.800Z,1.21
2023-01-19T16:49:04.241Z,1.27
2023-01-19T16:51:32.444Z,1.32
2023-01-19T16:53:59.619Z,1.37
2023-01-19T16:56:26.652Z,1.43
2023-01-19T16:58:58.217Z,1.48
2023-01-19T17:01:29.260Z,1.52
2023-01-19T17:03:56.683Z,1.59
2023-01-19T17:06:24.434Z,1.64
2023-01-19T17:08:53.186Z,1.68
2023-01-19T17:11:29.825Z,1.69
2023-01-19T17:14:11.643Z,1.68
2023-01-19T17:16:38.685Z,1.71
2023-01-19T17:19:07.377Z,1.74
2023-01-19T17:21:35.425Z,1.74
2023-01-19T17:24:02.389Z,1.78
2023-01-19T17:26:31.056Z,1.77
2023-01-19T17:29:04.356Z,1.82
2023-01-19T17:31:32.149Z,1.86
2023-01-19T17:34:00.044Z,1.86
2023-01-19T17:36:29.595Z,1.88
2023-01-19T17:38:59.868Z,1.93
2023-01-19T17:41:30.238Z,1.96
2023-01-19T17:43:59.168Z,1.97
2023-01-19T17:46:28.680Z,1.97
2023-01-19T17:48:58.674Z,1.97
2023-01-19T17:51:26.817Z,1.95
2023-01-19T17:53:55.664Z,1.96
2023-01-19T17:56:29.467Z,1.98
2023-01-19T17:58:58.115Z,2.00
2023-01-19T18:01:31.391Z,2.03
2023-01-19T18:03:59.731Z,2.06
2023-01-19T18:06:26.855Z,2.08
2023-01-19T18:08:54.141Z,2.12
2023-01-19T18:11:21.871Z,2.12
2023-01-19T18:13:50.751Z,2.15
2023-01-19T18:16:27.763Z,2.16
2023-01-19T18:18:56.400Z,2.19
2023-01-19T18:21:27.492Z,2.16
2023-01-19T18:24:05.639Z,2.19
2023-01-19T18:26:35.368Z,2.22
2023-01-19T18:29:02.349Z,2.25
2023-01-19T18:31:29.666Z,2.28
2023-01-19T18:33:56.806Z,2.29
2023-01-19T18:36:23.981Z,2.30
2023-01-19T18:38:51.605Z,2.31
2023-01-19T18:41:20.623Z,2.34
2023-01-19T18:43:49.236Z,2.33
2023-01-19T18:46:16.873Z,2.34
2023-01-19T18:48:43.994Z,2.35
2023-01-19T18:51:15.923Z,2.36
2023-01-19T18:53:44.056Z,2.37
2023-01-19T18:56:13.286Z,2.37
2023-01-19T18:58:40.691Z,2.38
2023-01-19T19:01:32.943Z,2.35
2023-01-19T19:04:00.805Z,2.37
2023-01-19T19:06:28.474Z,2.38
2023-01-19T19:08:59.293Z,2.39
2023-01-19T19:11:27.600Z,2.42
2023-01-19T19:13:58.661Z,2.44
2023-01-19T19:16:25.980Z,2.46
2023-01-19T19:18:53.061Z,2.49
2023-01-19T19:21:21.952Z,2.50
2023-01-19T19:23:54.893Z,2.53
2023-01-19T19:26:23.214Z,2.53
2023-01-19T19:28:50.250Z,2.52
2023-01-19T19:31:21.123Z,2.48
2023-01-19T19:35:02.745Z,2.50
2023-01-19T19:37:30.227Z,2.50
2023-01-19T19:39:57.959Z,2.53
2023-01-19T19:42:25.137Z,2.56
2023-01-19T19:44:52.932Z,2.58
2023-01-19T19:47:19.923Z,2.57
2023-01-19T19:49:46.966Z,2.54
2023-01-19T19:52:13.925Z,2.51
2023-01-19T19:54:41.565Z,2.48
2023-01-19T19:57:08.531Z,2.47
2023-01-19T19:59:35.520Z,2.47
2023-01-19T20:02:02.529Z,2.44
2023-01-19T20:04:29.586Z,2.45
2023-01-19T20:06:59.142Z,2.46
2023-01-19T20:09:26.181Z,2.45
2023-01-19T20:11:53.140Z,2.45
2023-01-19T20:14:22.445Z,2.45
2023-01-19T20:16:49.832Z,2.46
2023-01-19T20:19:18.363Z,2.51
2023-01-19T20:21:45.353Z,2.54
2023-01-19T20:24:18.383Z,2.56
2023-01-19T20:26:50.322Z,2.56
2023-01-19T20:29:17.881Z,2.57
2023-01-19T20:31:49.477Z,2.57
2023-01-19T20:34:20.503Z,2.58
2023-01-19T20:36:49.830Z,2.56
2023-01-19T20:39:18.473Z,2.57
2023-01-19T20:41:45.762Z,2.59
2023-01-19T20:44:16.460Z,2.64
2023-01-19T20:46:43.517Z,2.66
2023-01-19T20:49:10.484Z,2.69
2023-01-19T20:51:41.607Z,2.72
2023-01-19T20:54:10.994Z,2.70
2023-01-19T20:56:38.546Z,2.74
2023-01-19T20:59:05.486Z,2.77
2023-01-19T21:01:32.529Z,2.82
2023-01-19T21:03:59.587Z,2.84
2023-01-19T21:06:26.586Z,2.87
2023-01-19T21:08:54.450Z,2.87
2023-01-19T21:11:23.907Z,2.87
2023-01-19T21:13:55.483Z,2.87
2023-01-19T21:16:32.275Z,2.88
2023-01-19T21:18:59.937Z,2.90
2023-01-19T21:21:31.630Z,2.90
2023-01-19T21:24:02.248Z,2.89
2023-01-19T21:26:30.321Z,2.88
2023-01-19T21:29:02.734Z,2.91
2023-01-19T21:31:30.714Z,2.93
2023-01-19T21:33:58.142Z,2.94
2023-01-19T21:36:25.449Z,2.93
2023-01-19T21:38:52.711Z,2.93
2023-01-19T21:41:19.915Z,2.93
2023-01-19T21:43:48.238Z,2.94
2023-01-19T21:46:19.538Z,2.96
2023-01-19T21:48:47.362Z,2.97
2023-01-19T21:51:15.416Z,3.00
2023-01-19T21:53:42.749Z,3.02
2023-01-19T21:56:11.306Z,3.01
2023-01-19T21:58:39.013Z,3.01
2023-01-19T22:01:15.332Z,3.00
2023-01-19T22:03:42.988Z,3.02
2023-01-19T22:06:13.668Z,3.01
2023-01-19T22:08:41.434Z,2.98
2023-01-19T22:11:11.480Z,2.99
2023-01-19T22:13:39.770Z,3.00
2023-01-19T22:16:10.925Z,2.99
2023-01-19T22:18:40.837Z,3.01
2023-01-19T22:21:17.353Z,3.01
2023-01-19T22:23:44.785Z,3.01
2023-01-19T22:26:12.236Z,3.02
2023-01-19T22:28:39.494Z,3.02
2023-01-19T22:31:16.776Z,3.01
2023-01-19T22:33:44.398Z,3.11
2023-01-19T22:36:28.656Z,3.13
2023-01-19T22:39:01.939Z,3.11
2023-01-19T22:41:28.878Z,3.12
2023-01-19T22:43:59.186Z,3.11
2023-01-19T22:46:30.070Z,3.11
2023-01-19T22:48:57.809Z,3.15
2023-01-19T22:51:26.246Z,3.18
2023-01-19T22:53:53.270Z,3.22
2023-01-19T22:56:22.299Z,3.26
2023-01-19T22:58:50.503Z,3.30
2023-01-19T23:01:41.529Z,3.32
2023-01-19T23:04:13.699Z,3.33
2023-01-19T23:06:40.706Z,3.33
2023-01-19T23:09:13.544Z,3.32
2023-01-19T23:11:43.463Z,3.34
2023-01-19T23:14:16.961Z,3.34
2023-01-19T23:16:44.509Z,3.35
2023-01-19T23:19:13.779Z,3.38
2023-01-19T23:21:41.401Z,3.38
2023-01-19T23:24:09.023Z,3.41
2023-01-19T23:26:38.290Z,3.43
2023-01-19T23:29:14.178Z,3.42
2023-01-19T23:31:46.992Z,3.42
2023-01-19T23:34:16.605Z,3.43
2023-01-19T23:36:44.134Z,3.43
2023-01-19T23:39:21.093Z,3.40
2023-01-19T23:41:48.274Z,3.39
2023-01-19T23:44:15.846Z,3.40
2023-01-19T23:46:43.967Z,3.38
2023-01-19T23:49:11.721Z,3.34
2023-01-19T23:51:40.753Z,3.34
2023-01-19T23:54:08.272Z,3.35
2023-01-19T23:56:38.190Z,3.36
2023-01-19T23:59:13.779Z,3.36
